sensor_id;sensor_type;location;lat;lon;timestamp;P1;durP1;ratioP1;P2;durP2;ratioP2
51738;SDS011;37815;52.692;6.226;2023-06-01T00:00:17;4.90;;;2.60;;
51738;SDS011;37815;52.692;6.226;2023-06-01T00:05:18;6.28;;;3.10;;
51738;SDS011;37815;52.692;6.226;2023-06-01T00:10:19;5.32;;;2.80;;
51738;SDS011;37815;52.692;6.226;2023-06-01T00:15:20;4.60;;;2.50;;
51738;SDS011;37815;52.692;6.226;2023-06-01T00:20:20;6.25;;;2.70;;
51738;SDS011;37815;52.692;6.226;2023-06-01T00:25:23;4.35;;;2.50;;
51738;SDS011;37815;52.692;6.226;2023-06-01T00:30:24;3.85;;;2.33;;
51738;SDS011;37815;52.692;6.226;2023-06-01T00:35:25;7.32;;;2.92;;
51738;SDS011;37815;52.692;6.226;2023-06-01T00:40:25;6.38;;;3.03;;
51738;SDS011;37815;52.692;6.226;2023-06-01T00:45:26;7.38;;;3.00;;
51738;SDS011;37815;52.692;6.226;2023-06-01T00:50:26;6.20;;;3.00;;
51738;SDS011;37815;52.692;6.226;2023-06-01T00:55:27;4.20;;;2.42;;
51738;SDS011;37815;52.692;6.226;2023-06-01T01:00:28;5.55;;;2.95;;
51738;SDS011;37815;52.692;6.226;2023-06-01T01:05:29;5.47;;;3.13;;
51738;SDS011;37815;52.692;6.226;2023-06-01T01:10:36;6.93;;;2.83;;
51738;SDS011;37815;52.692;6.226;2023-06-01T01:20:52;5.30;;;2.88;;
51738;SDS011;37815;52.692;6.226;2023-06-01T01:26:08;7.88;;;2.72;;
51738;SDS011;37815;52.692;6.226;2023-06-01T01:31:24;6.18;;;2.97;;
51738;SDS011;37815;52.692;6.226;2023-06-01T01:36:26;6.40;;;2.58;;
51738;SDS011;37815;52.692;6.226;2023-06-01T01:41:28;4.78;;;2.60;;
51738;SDS011;37815;52.692;6.226;2023-06-01T01:46:30;5.28;;;2.63;;
51738;SDS011;37815;52.692;6.226;2023-06-01T01:51:37;4.63;;;3.08;;
51738;SDS011;37815;52.692;6.226;2023-06-01T01:56:46;6.60;;;3.10;;
51738;SDS011;37815;52.692;6.226;2023-06-01T02:01:49;5.93;;;2.53;;
51738;SDS011;37815;52.692;6.226;2023-06-01T02:06:50;7.07;;;3.15;;
51738;SDS011;37815;52.692;6.226;2023-06-01T02:11:50;6.00;;;2.60;;
51738;SDS011;37815;52.692;6.226;2023-06-01T02:16:51;4.53;;;2.85;;
51738;SDS011;37815;52.692;6.226;2023-06-01T02:21:53;4.28;;;2.65;;
51738;SDS011;37815;52.692;6.226;2023-06-01T02:26:54;6.45;;;2.70;;
51738;SDS011;37815;52.692;6.226;2023-06-01T02:31:55;8.02;;;3.60;;
51738;SDS011;37815;52.692;6.226;2023-06-01T02:36:56;5.10;;;2.97;;
51738;SDS011;37815;52.692;6.226;2023-06-01T02:41:57;6.97;;;3.38;;
51738;SDS011;37815;52.692;6.226;2023-06-01T02:46:58;6.40;;;3.05;;
51738;SDS011;37815;52.692;6.226;2023-06-01T02:51:58;7.00;;;3.17;;
51738;SDS011;37815;52.692;6.226;2023-06-01T02:56:59;5.00;;;2.78;;
51738;SDS011;37815;52.692;6.226;2023-06-01T03:02:01;6.55;;;3.10;;
51738;SDS011;37815;52.692;6.226;2023-06-01T03:07:02;9.23;;;3.20;;
51738;SDS011;37815;52.692;6.226;2023-06-01T03:12:02;6.78;;;2.63;;
51738;SDS011;37815;52.692;6.226;2023-06-01T03:17:04;5.20;;;2.97;;
51738;SDS011;37815;52.692;6.226;2023-06-01T03:22:05;6.30;;;3.47;;
51738;SDS011;37815;52.692;6.226;2023-06-01T03:27:06;5.95;;;3.38;;
51738;SDS011;37815;52.692;6.226;2023-06-01T03:32:07;6.65;;;3.33;;
51738;SDS011;37815;52.692;6.226;2023-06-01T03:37:08;8.35;;;3.25;;
51738;SDS011;37815;52.692;6.226;2023-06-01T03:42:08;6.35;;;3.00;;
51738;SDS011;37815;52.692;6.226;2023-06-01T03:47:09;6.30;;;3.10;;
51738;SDS011;37815;52.692;6.226;2023-06-01T03:52:10;6.22;;;3.28;;
51738;SDS011;37815;52.692;6.226;2023-06-01T03:57:10;6.18;;;3.55;;
51738;SDS011;37815;52.692;6.226;2023-06-01T04:02:11;6.40;;;2.97;;
51738;SDS011;37815;52.692;6.226;2023-06-01T04:07:12;4.97;;;2.88;;
51738;SDS011;37815;52.692;6.226;2023-06-01T04:12:21;7.38;;;2.95;;
51738;SDS011;37815;52.692;6.226;2023-06-01T04:17:22;4.22;;;2.65;;
51738;SDS011;37815;52.692;6.226;2023-06-01T04:22:22;4.78;;;3.08;;
51738;SDS011;37815;52.692;6.226;2023-06-01T04:27:23;8.38;;;3.03;;
51738;SDS011;37815;52.692;6.226;2023-06-01T04:32:24;6.88;;;2.75;;
51738;SDS011;37815;52.692;6.226;2023-06-01T04:37:27;4.65;;;2.65;;
51738;SDS011;37815;52.692;6.226;2023-06-01T04:42:29;6.05;;;3.33;;
51738;SDS011;37815;52.692;6.226;2023-06-01T04:47:39;4.43;;;2.65;;
51738;SDS011;37815;52.692;6.226;2023-06-01T04:52:40;5.38;;;2.75;;
51738;SDS011;37815;52.692;6.226;2023-06-01T04:57:41;4.78;;;2.95;;
51738;SDS011;37815;52.692;6.226;2023-06-01T05:02:45;3.80;;;2.42;;
51738;SDS011;37815;52.692;6.226;2023-06-01T05:07:48;5.40;;;2.30;;
51738;SDS011;37815;52.692;6.226;2023-06-01T05:12:49;5.00;;;2.42;;
51738;SDS011;37815;52.692;6.226;2023-06-01T05:17:50;4.95;;;2.28;;
51738;SDS011;37815;52.692;6.226;2023-06-01T05:22:51;4.03;;;2.15;;
51738;SDS011;37815;52.692;6.226;2023-06-01T05:27:51;4.32;;;2.40;;
51738;SDS011;37815;52.692;6.226;2023-06-01T05:32:52;4.18;;;2.67;;
51738;SDS011;37815;52.692;6.226;2023-06-01T05:37:52;3.40;;;2.17;;
51738;SDS011;37815;52.692;6.226;2023-06-01T05:42:53;5.63;;;2.75;;
51738;SDS011;37815;52.692;6.226;2023-06-01T05:47:53;8.07;;;2.90;;
51738;SDS011;37815;52.692;6.226;2023-06-01T05:52:54;5.28;;;2.42;;
51738;SDS011;37815;52.692;6.226;2023-06-01T05:57:55;4.32;;;2.70;;
51738;SDS011;37815;52.692;6.226;2023-06-01T06:02:56;4.80;;;2.58;;
51738;SDS011;37815;52.692;6.226;2023-06-01T06:07:56;4.82;;;2.40;;
51738;SDS011;37815;52.692;6.226;2023-06-01T06:12:57;4.03;;;2.60;;
51738;SDS011;37815;52.692;6.226;2023-06-01T06:17:57;4.03;;;2.60;;
51738;SDS011;37815;52.692;6.226;2023-06-01T06:22:58;5.20;;;2.58;;
51738;SDS011;37815;52.692;6.226;2023-06-01T06:27:59;5.55;;;2.40;;
51738;SDS011;37815;52.692;6.226;2023-06-01T06:32:59;4.35;;;2.40;;
51738;SDS011;37815;52.692;6.226;2023-06-01T06:38:00;4.82;;;2.20;;
51738;SDS011;37815;52.692;6.226;2023-06-01T06:43:01;5.25;;;2.28;;
51738;SDS011;37815;52.692;6.226;2023-06-01T06:48:01;5.45;;;2.40;;
51738;SDS011;37815;52.692;6.226;2023-06-01T06:53:02;5.05;;;2.67;;
51738;SDS011;37815;52.692;6.226;2023-06-01T06:58:03;3.70;;;2.30;;
51738;SDS011;37815;52.692;6.226;2023-06-01T07:03:04;5.00;;;2.28;;
51738;SDS011;37815;52.692;6.226;2023-06-01T07:08:05;6.00;;;2.33;;
51738;SDS011;37815;52.692;6.226;2023-06-01T07:13:06;7.18;;;2.38;;
51738;SDS011;37815;52.692;6.226;2023-06-01T07:18:06;4.68;;;2.28;;
51738;SDS011;37815;52.692;6.226;2023-06-01T07:23:08;4.80;;;2.30;;
51738;SDS011;37815;52.692;6.226;2023-06-01T07:28:08;3.05;;;2.05;;
51738;SDS011;37815;52.692;6.226;2023-06-01T07:33:09;5.30;;;2.22;;
51738;SDS011;37815;52.692;6.226;2023-06-01T07:38:10;3.40;;;2.30;;
51738;SDS011;37815;52.692;6.226;2023-06-01T07:43:11;4.78;;;2.33;;
51738;SDS011;37815;52.692;6.226;2023-06-01T07:48:11;4.22;;;2.30;;
51738;SDS011;37815;52.692;6.226;2023-06-01T07:53:12;3.05;;;1.92;;
51738;SDS011;37815;52.692;6.226;2023-06-01T07:58:13;4.07;;;2.60;;
51738;SDS011;37815;52.692;6.226;2023-06-01T08:03:14;5.18;;;2.83;;
51738;SDS011;37815;52.692;6.226;2023-06-01T08:08:15;8.05;;;2.35;;
51738;SDS011;37815;52.692;6.226;2023-06-01T08:13:15;4.78;;;2.60;;
51738;SDS011;37815;52.692;6.226;2023-06-01T08:18:16;6.97;;;2.67;;
51738;SDS011;37815;52.692;6.226;2023-06-01T08:23:19;9.35;;;2.88;;
51738;SDS011;37815;52.692;6.226;2023-06-01T08:28:22;7.90;;;2.60;;
51738;SDS011;37815;52.692;6.226;2023-06-01T08:33:23;4.00;;;2.53;;
51738;SDS011;37815;52.692;6.226;2023-06-01T08:38:23;5.25;;;2.42;;
51738;SDS011;37815;52.692;6.226;2023-06-01T08:43:28;8.30;;;4.10;;
51738;SDS011;37815;52.692;6.226;2023-06-01T08:48:32;4.68;;;2.55;;
51738;SDS011;37815;52.692;6.226;2023-06-01T08:53:34;6.65;;;2.95;;
51738;SDS011;37815;52.692;6.226;2023-06-01T08:58:36;3.75;;;2.33;;
51738;SDS011;37815;52.692;6.226;2023-06-01T09:03:37;7.25;;;2.47;;
51738;SDS011;37815;52.692;6.226;2023-06-01T09:08:37;5.63;;;2.10;;
51738;SDS011;37815;52.692;6.226;2023-06-01T09:13:38;4.05;;;1.83;;
51738;SDS011;37815;52.692;6.226;2023-06-01T09:18:50;4.50;;;1.98;;
51738;SDS011;37815;52.692;6.226;2023-06-01T09:23:52;5.32;;;2.20;;
51738;SDS011;37815;52.692;6.226;2023-06-01T09:28:53;9.77;;;2.92;;
51738;SDS011;37815;52.692;6.226;2023-06-01T09:34:01;6.57;;;2.20;;
51738;SDS011;37815;52.692;6.226;2023-06-01T09:44:09;5.67;;;2.10;;
51738;SDS011;37815;52.692;6.226;2023-06-01T09:49:10;4.10;;;1.98;;
51738;SDS011;37815;52.692;6.226;2023-06-01T09:54:25;2.63;;;1.70;;
51738;SDS011;37815;52.692;6.226;2023-06-01T09:59:28;3.30;;;1.70;;
51738;SDS011;37815;52.692;6.226;2023-06-01T10:04:37;3.78;;;1.75;;
51738;SDS011;37815;52.692;6.226;2023-06-01T10:09:41;3.78;;;2.10;;
51738;SDS011;37815;52.692;6.226;2023-06-01T10:14:43;3.60;;;1.90;;
51738;SDS011;37815;52.692;6.226;2023-06-01T10:19:44;5.07;;;1.63;;
51738;SDS011;37815;52.692;6.226;2023-06-01T10:24:45;5.85;;;2.25;;
51738;SDS011;37815;52.692;6.226;2023-06-01T10:29:46;2.78;;;1.60;;
51738;SDS011;37815;52.692;6.226;2023-06-01T10:34:47;3.13;;;1.48;;
51738;SDS011;37815;52.692;6.226;2023-06-01T10:39:48;5.15;;;1.55;;
51738;SDS011;37815;52.692;6.226;2023-06-01T10:44:48;6.28;;;1.60;;
51738;SDS011;37815;52.692;6.226;2023-06-01T10:54:52;3.95;;;1.75;;
51738;SDS011;37815;52.692;6.226;2023-06-01T11:26:36;3.58;;;1.52;;
51738;SDS011;37815;52.692;6.226;2023-06-01T11:31:45;5.18;;;2.28;;
51738;SDS011;37815;52.692;6.226;2023-06-01T11:36:48;3.53;;;1.67;;
51738;SDS011;37815;52.692;6.226;2023-06-01T11:42:03;2.92;;;1.67;;
51738;SDS011;37815;52.692;6.226;2023-06-01T11:47:07;2.95;;;1.60;;
51738;SDS011;37815;52.692;6.226;2023-06-01T11:52:09;2.45;;;1.50;;
51738;SDS011;37815;52.692;6.226;2023-06-01T11:57:10;5.22;;;1.90;;
51738;SDS011;37815;52.692;6.226;2023-06-01T12:02:18;2.95;;;1.90;;
51738;SDS011;37815;52.692;6.226;2023-06-01T12:07:22;1.70;;;1.45;;
51738;SDS011;37815;52.692;6.226;2023-06-01T12:12:24;2.67;;;1.58;;
51738;SDS011;37815;52.692;6.226;2023-06-01T12:17:45;5.30;;;2.00;;
51738;SDS011;37815;52.692;6.226;2023-06-01T12:22:49;3.83;;;1.58;;
51738;SDS011;37815;52.692;6.226;2023-06-01T12:28:06;3.33;;;1.52;;
51738;SDS011;37815;52.692;6.226;2023-06-01T12:33:07;3.80;;;1.73;;
51738;SDS011;37815;52.692;6.226;2023-06-01T12:38:08;4.18;;;1.90;;
51738;SDS011;37815;52.692;6.226;2023-06-01T12:43:19;3.42;;;1.55;;
51738;SDS011;37815;52.692;6.226;2023-06-01T12:48:29;3.78;;;1.83;;
51738;SDS011;37815;52.692;6.226;2023-06-01T12:53:32;2.47;;;1.55;;
51738;SDS011;37815;52.692;6.226;2023-06-01T12:58:33;4.32;;;1.83;;
51738;SDS011;37815;52.692;6.226;2023-06-01T13:03:33;2.92;;;1.60;;
51738;SDS011;37815;52.692;6.226;2023-06-01T13:08:34;5.25;;;1.80;;
51738;SDS011;37815;52.692;6.226;2023-06-01T13:13:35;3.75;;;1.90;;
51738;SDS011;37815;52.692;6.226;2023-06-01T13:18:35;3.88;;;2.33;;
51738;SDS011;37815;52.692;6.226;2023-06-01T13:23:36;6.10;;;2.00;;
51738;SDS011;37815;52.692;6.226;2023-06-01T13:28:37;2.65;;;1.67;;
51738;SDS011;37815;52.692;6.226;2023-06-01T13:33:37;3.97;;;2.05;;
51738;SDS011;37815;52.692;6.226;2023-06-01T13:38:38;4.80;;;1.80;;
51738;SDS011;37815;52.692;6.226;2023-06-01T13:43:42;3.20;;;2.00;;
51738;SDS011;37815;52.692;6.226;2023-06-01T13:48:42;6.15;;;2.00;;
51738;SDS011;37815;52.692;6.226;2023-06-01T13:53:43;4.45;;;2.40;;
51738;SDS011;37815;52.692;6.226;2023-06-01T13:58:44;4.72;;;1.80;;
51738;SDS011;37815;52.692;6.226;2023-06-01T14:03:45;3.67;;;1.95;;
51738;SDS011;37815;52.692;6.226;2023-06-01T14:08:45;2.80;;;1.70;;
51738;SDS011;37815;52.692;6.226;2023-06-01T14:13:46;4.97;;;2.08;;
51738;SDS011;37815;52.692;6.226;2023-06-01T14:18:47;6.00;;;2.70;;
51738;SDS011;37815;52.692;6.226;2023-06-01T14:23:48;5.68;;;2.38;;
51738;SDS011;37815;52.692;6.226;2023-06-01T14:28:48;4.82;;;2.92;;
51738;SDS011;37815;52.692;6.226;2023-06-01T14:33:49;7.55;;;2.35;;
51738;SDS011;37815;52.692;6.226;2023-06-01T14:38:49;5.78;;;2.65;;
51738;SDS011;37815;52.692;6.226;2023-06-01T14:43:50;7.30;;;2.80;;
51738;SDS011;37815;52.692;6.226;2023-06-01T14:48:51;6.32;;;2.53;;
51738;SDS011;37815;52.692;6.226;2023-06-01T14:53:52;7.93;;;2.60;;
51738;SDS011;37815;52.692;6.226;2023-06-01T14:58:52;8.75;;;3.03;;
51738;SDS011;37815;52.692;6.226;2023-06-01T15:03:53;6.10;;;2.55;;
51738;SDS011;37815;52.692;6.226;2023-06-01T15:08:54;8.30;;;2.60;;
51738;SDS011;37815;52.692;6.226;2023-06-01T15:13:54;9.88;;;3.63;;
51738;SDS011;37815;52.692;6.226;2023-06-01T15:18:55;5.85;;;2.55;;
51738;SDS011;37815;52.692;6.226;2023-06-01T15:23:56;8.02;;;2.70;;
51738;SDS011;37815;52.692;6.226;2023-06-01T15:28:56;6.05;;;2.15;;
51738;SDS011;37815;52.692;6.226;2023-06-01T15:33:57;6.93;;;2.60;;
51738;SDS011;37815;52.692;6.226;2023-06-01T15:38:59;4.82;;;2.00;;
51738;SDS011;37815;52.692;6.226;2023-06-01T15:44:01;6.07;;;2.40;;
51738;SDS011;37815;52.692;6.226;2023-06-01T15:49:02;6.50;;;2.13;;
51738;SDS011;37815;52.692;6.226;2023-06-01T15:54:02;5.90;;;2.20;;
51738;SDS011;37815;52.692;6.226;2023-06-01T15:59:03;6.65;;;2.20;;
51738;SDS011;37815;52.692;6.226;2023-06-01T16:04:04;13.90;;;3.85;;
51738;SDS011;37815;52.692;6.226;2023-06-01T16:09:05;4.70;;;2.30;;
51738;SDS011;37815;52.692;6.226;2023-06-01T16:14:09;6.03;;;2.13;;
51738;SDS011;37815;52.692;6.226;2023-06-01T16:19:09;4.80;;;2.15;;
51738;SDS011;37815;52.692;6.226;2023-06-01T16:24:10;4.70;;;2.10;;
51738;SDS011;37815;52.692;6.226;2023-06-01T16:29:11;6.15;;;2.13;;
51738;SDS011;37815;52.692;6.226;2023-06-01T16:34:11;5.15;;;1.90;;
51738;SDS011;37815;52.692;6.226;2023-06-01T16:39:12;6.03;;;2.00;;
51738;SDS011;37815;52.692;6.226;2023-06-01T16:44:13;4.95;;;2.20;;
51738;SDS011;37815;52.692;6.226;2023-06-01T16:49:14;5.97;;;2.00;;
51738;SDS011;37815;52.692;6.226;2023-06-01T16:54:15;3.90;;;1.77;;
51738;SDS011;37815;52.692;6.226;2023-06-01T16:59:15;7.47;;;2.15;;
51738;SDS011;37815;52.692;6.226;2023-06-01T17:04:16;5.00;;;1.90;;
51738;SDS011;37815;52.692;6.226;2023-06-01T17:09:17;7.18;;;2.03;;
51738;SDS011;37815;52.692;6.226;2023-06-01T17:14:17;4.78;;;2.00;;
51738;SDS011;37815;52.692;6.226;2023-06-01T17:19:18;5.70;;;1.75;;
51738;SDS011;37815;52.692;6.226;2023-06-01T17:24:18;2.97;;;1.88;;
51738;SDS011;37815;52.692;6.226;2023-06-01T17:29:19;4.60;;;1.65;;
51738;SDS011;37815;52.692;6.226;2023-06-01T17:34:20;3.20;;;1.50;;
51738;SDS011;37815;52.692;6.226;2023-06-01T17:39:21;8.18;;;2.65;;
51738;SDS011;37815;52.692;6.226;2023-06-01T17:44:21;4.07;;;1.48;;
51738;SDS011;37815;52.692;6.226;2023-06-01T17:49:24;2.80;;;1.63;;
51738;SDS011;37815;52.692;6.226;2023-06-01T17:54:25;6.90;;;1.80;;
51738;SDS011;37815;52.692;6.226;2023-06-01T17:59:27;8.13;;;1.90;;
51738;SDS011;37815;52.692;6.226;2023-06-01T18:04:28;3.45;;;1.80;;
51738;SDS011;37815;52.692;6.226;2023-06-01T18:09:28;4.88;;;1.90;;
51738;SDS011;37815;52.692;6.226;2023-06-01T18:14:29;9.77;;;2.97;;
51738;SDS011;37815;52.692;6.226;2023-06-01T18:19:30;4.90;;;1.60;;
51738;SDS011;37815;52.692;6.226;2023-06-01T18:24:30;5.32;;;1.98;;
51738;SDS011;37815;52.692;6.226;2023-06-01T18:29:31;2.75;;;1.40;;
51738;SDS011;37815;52.692;6.226;2023-06-01T18:34:32;4.90;;;1.50;;
51738;SDS011;37815;52.692;6.226;2023-06-01T18:39:32;4.18;;;1.70;;
51738;SDS011;37815;52.692;6.226;2023-06-01T18:44:33;1.88;;;1.35;;
51738;SDS011;37815;52.692;6.226;2023-06-01T18:49:33;4.00;;;1.52;;
51738;SDS011;37815;52.692;6.226;2023-06-01T18:54:39;3.70;;;1.50;;
51738;SDS011;37815;52.692;6.226;2023-06-01T18:59:40;6.70;;;2.15;;
51738;SDS011;37815;52.692;6.226;2023-06-01T19:04:41;4.38;;;1.98;;
51738;SDS011;37815;52.692;6.226;2023-06-01T19:09:41;5.40;;;2.08;;
51738;SDS011;37815;52.692;6.226;2023-06-01T19:14:42;3.65;;;1.90;;
51738;SDS011;37815;52.692;6.226;2023-06-01T19:19:44;4.57;;;1.80;;
51738;SDS011;37815;52.692;6.226;2023-06-01T19:24:44;4.53;;;2.17;;
51738;SDS011;37815;52.692;6.226;2023-06-01T19:29:45;3.72;;;2.15;;
51738;SDS011;37815;52.692;6.226;2023-06-01T19:34:46;6.57;;;2.00;;
51738;SDS011;37815;52.692;6.226;2023-06-01T19:39:46;2.53;;;1.80;;
51738;SDS011;37815;52.692;6.226;2023-06-01T19:44:47;3.15;;;1.80;;
51738;SDS011;37815;52.692;6.226;2023-06-01T19:49:48;3.67;;;1.92;;
51738;SDS011;37815;52.692;6.226;2023-06-01T19:54:48;3.80;;;1.90;;
51738;SDS011;37815;52.692;6.226;2023-06-01T19:59:49;4.68;;;1.75;;
51738;SDS011;37815;52.692;6.226;2023-06-01T20:04:51;3.83;;;1.80;;
51738;SDS011;37815;52.692;6.226;2023-06-01T20:09:52;2.78;;;1.45;;
51738;SDS011;37815;52.692;6.226;2023-06-01T20:14:52;2.28;;;1.38;;
51738;SDS011;37815;52.692;6.226;2023-06-01T20:19:53;4.43;;;1.63;;
51738;SDS011;37815;52.692;6.226;2023-06-01T20:24:54;3.08;;;1.75;;
51738;SDS011;37815;52.692;6.226;2023-06-01T20:29:55;3.78;;;1.60;;
51738;SDS011;37815;52.692;6.226;2023-06-01T20:34:55;5.45;;;1.90;;
51738;SDS011;37815;52.692;6.226;2023-06-01T20:39:56;3.47;;;1.77;;
51738;SDS011;37815;52.692;6.226;2023-06-01T20:44:59;4.20;;;1.60;;
51738;SDS011;37815;52.692;6.226;2023-06-01T20:50:00;7.60;;;3.03;;
51738;SDS011;37815;52.692;6.226;2023-06-01T20:55:01;3.63;;;1.90;;
51738;SDS011;37815;52.692;6.226;2023-06-01T21:00:02;4.10;;;1.50;;
51738;SDS011;37815;52.692;6.226;2023-06-01T21:05:03;7.80;;;2.42;;
51738;SDS011;37815;52.692;6.226;2023-06-01T21:10:04;5.13;;;1.75;;
51738;SDS011;37815;52.692;6.226;2023-06-01T21:15:06;5.65;;;1.85;;
51738;SDS011;37815;52.692;6.226;2023-06-01T21:20:07;3.80;;;1.77;;
51738;SDS011;37815;52.692;6.226;2023-06-01T21:25:08;6.60;;;1.98;;
51738;SDS011;37815;52.692;6.226;2023-06-01T21:30:09;3.35;;;1.77;;
51738;SDS011;37815;52.692;6.226;2023-06-01T21:35:10;5.68;;;2.42;;
51738;SDS011;37815;52.692;6.226;2023-06-01T21:40:10;2.58;;;1.80;;
51738;SDS011;37815;52.692;6.226;2023-06-01T21:45:11;7.60;;;2.08;;
51738;SDS011;37815;52.692;6.226;2023-06-01T21:50:12;6.38;;;2.10;;
51738;SDS011;37815;52.692;6.226;2023-06-01T21:55:12;3.15;;;1.80;;
51738;SDS011;37815;52.692;6.226;2023-06-01T22:00:13;5.20;;;1.80;;
51738;SDS011;37815;52.692;6.226;2023-06-01T22:05:15;3.13;;;2.03;;
51738;SDS011;37815;52.692;6.226;2023-06-01T22:10:16;3.72;;;1.63;;
51738;SDS011;37815;52.692;6.226;2023-06-01T22:15:17;2.88;;;1.75;;
51738;SDS011;37815;52.692;6.226;2023-06-01T22:20:18;4.90;;;1.67;;
51738;SDS011;37815;52.692;6.226;2023-06-01T22:25:19;5.22;;;1.88;;
51738;SDS011;37815;52.692;6.226;2023-06-01T22:30:19;5.35;;;1.70;;
51738;SDS011;37815;52.692;6.226;2023-06-01T22:35:20;4.80;;;2.05;;
51738;SDS011;37815;52.692;6.226;2023-06-01T22:40:20;3.58;;;2.05;;
51738;SDS011;37815;52.692;6.226;2023-06-01T22:45:21;4.40;;;1.90;;
51738;SDS011;37815;52.692;6.226;2023-06-01T22:50:21;5.03;;;1.85;;
51738;SDS011;37815;52.692;6.226;2023-06-01T22:55:22;5.78;;;1.60;;
51738;SDS011;37815;52.692;6.226;2023-06-01T23:00:23;5.20;;;1.70;;
51738;SDS011;37815;52.692;6.226;2023-06-01T23:05:25;4.90;;;1.92;;
51738;SDS011;37815;52.692;6.226;2023-06-01T23:10:26;7.43;;;1.90;;
51738;SDS011;37815;52.692;6.226;2023-06-01T23:15:28;5.05;;;1.88;;
51738;SDS011;37815;52.692;6.226;2023-06-01T23:20:29;6.38;;;2.28;;
51738;SDS011;37815;52.692;6.226;2023-06-01T23:25:30;5.32;;;2.10;;
51738;SDS011;37815;52.692;6.226;2023-06-01T23:30:31;3.15;;;1.63;;
51738;SDS011;37815;52.692;6.226;2023-06-01T23:35:31;5.53;;;2.10;;
51738;SDS011;37815;52.692;6.226;2023-06-01T23:40:32;4.85;;;2.03;;
51738;SDS011;37815;52.692;6.226;2023-06-01T23:45:32;5.32;;;2.10;;
51738;SDS011;37815;52.692;6.226;2023-06-01T23:50:33;2.75;;;1.95;;
51738;SDS011;37815;52.692;6.226;2023-06-01T23:55:34;4.13;;;2.30;;
